Time;durP1;ratioP1;P1;durP2;ratioP2;P2;SDS_P1;SDS_P2;PMS_P1;PMS_P2;Temp;Humidity;BMP_temperature;BMP_pressure;BME280_temperature;BME280_humidity;BME280_pressure;Samples;Min_cycle;Max_cycle;Signal;HPM_P1;HPM_P2
2021/11/18 00:00:46;;;;;;;16.95;13.13;;;;;;;4.78;81.19;97090.53;1793432;79;20983;-82
2021/11/18 00:03:12;;;;;;;16.97;13.08;;;;;;;4.77;81.32;97101.31;1761932;80;21329;-82
2021/11/18 00:05:38;;;;;;;14.90;11.70;;;;;;;4.76;81.15;97102.25;1757862;82;21018;-82
2021/11/18 00:08:05;;;;;;;18.48;13.13;;;;;;;4.78;81.22;97092.64;1757674;82;20972;-82
2021/11/18 00:10:38;;;;;;;20.80;12.75;;;;;;;4.86;81.22;97096.31;1757713;81;20983;-82
2021/11/18 00:13:05;;;;;;;19.75;14.20;;;;;;;4.89;81.01;97094.33;1757801;82;21385;-82
2021/11/18 00:15:32;;;;;;;17.07;13.43;;;;;;;4.90;81.01;97093.85;1757701;82;21035;-82
2021/11/18 00:18:00;;;;;;;20.05;14.10;;;;;;;4.89;80.85;97098.19;1757641;81;21449;-82
2021/11/18 00:20:31;;;;;;;19.52;15.03;;;;;;;4.88;80.97;97100.86;1757441;81;21062;-82
2021/11/18 00:22:57;;;;;;;19.80;15.32;;;;;;;4.88;81.09;97106.02;1756120;82;21516;-82
2021/11/18 00:25:23;;;;;;;18.48;12.93;;;;;;;4.88;80.98;97099.58;1730167;82;21004;-82
2021/11/18 00:27:49;;;;;;;17.85;13.95;;;;;;;4.88;80.88;97102.15;1757645;82;21509;-82
2021/11/18 00:30:15;;;;;;;17.65;14.83;;;;;;;4.92;81.01;97108.23;1757704;82;20976;-82
2021/11/18 00:32:40;;;;;;;18.98;15.78;;;;;;;4.91;80.93;97109.64;1757622;81;21339;-82
2021/11/18 00:35:08;;;;;;;23.20;16.75;;;;;;;4.91;81.05;97110.93;1757784;81;21335;-82
2021/11/18 00:37:34;;;;;;;26.02;17.07;;;;;;;4.90;81.13;97113.16;1757525;81;21003;-82
2021/11/18 00:40:00;;;;;;;18.92;14.33;;;;;;;4.86;81.29;97121.59;1757635;81;20987;-82
2021/11/18 00:42:26;;;;;;;20.37;15.25;;;;;;;4.86;81.43;97124.17;1757754;81;21023;-82
2021/11/18 00:44:57;;;;;;;16.80;13.13;;;;;;;4.87;81.52;97127.56;1757590;81;20971;-82
2021/11/18 00:47:24;;;;;;;19.32;14.75;;;;;;;4.86;81.78;97127.22;1757361;82;21044;-82
2021/11/18 00:49:50;;;;;;;22.13;15.58;;;;;;;4.83;81.69;97129.11;1757449;81;21430;-82
2021/11/18 00:52:16;;;;;;;22.17;18.17;;;;;;;4.82;81.84;97126.19;1757357;82;21350;-82
2021/11/18 00:54:42;;;;;;;29.12;20.10;;;;;;;4.80;81.97;97128.55;1757591;82;21350;-82
2021/11/18 00:57:08;;;;;;;24.55;17.20;;;;;;;4.77;82.25;97127.53;1757694;81;21003;-82
2021/11/18 00:59:34;;;;;;;21.35;16.15;;;;;;;4.76;82.32;97123.33;1757531;82;21346;-82
2021/11/18 01:01:59;;;;;;;21.55;14.90;;;;;;;4.76;82.34;97129.28;1757518;81;21002;-82
2021/11/18 01:04:27;;;;;;;21.10;15.83;;;;;;;4.75;82.25;97119.94;1757483;81;21002;-82
2021/11/18 01:06:53;;;;;;;19.32;15.08;;;;;;;4.78;82.35;97129.97;1757481;82;20996;-82
2021/11/18 01:09:19;;;;;;;19.57;14.60;;;;;;;4.80;82.39;97126.80;1757488;82;21074;-82
2021/11/18 01:11:45;;;;;;;15.70;12.93;;;;;;;4.77;82.35;97136.06;1757633;81;21346;-82
2021/11/18 01:14:12;;;;;;;22.05;15.65;;;;;;;4.70;82.42;97122.05;1757379;82;20971;-81
2021/11/18 01:16:38;;;;;;;20.62;15.72;;;;;;;4.67;82.52;97126.64;1757505;81;20979;-82
2021/11/18 01:19:05;;;;;;;19.60;14.33;;;;;;;4.68;82.65;97123.12;1757341;81;21031;-82
2021/11/18 01:21:31;;;;;;;18.17;13.08;;;;;;;4.70;82.56;97118.19;1757440;82;21006;-82
2021/11/18 01:23:57;;;;;;;15.75;12.15;;;;;;;4.73;82.60;97122.30;1757695;82;20999;-82
2021/11/18 01:26:22;;;;;;;17.77;11.60;;;;;;;4.73;82.48;97127.45;1757788;81;21365;-82
2021/11/18 01:28:49;;;;;;;15.30;10.68;;;;;;;4.76;82.68;97118.98;1757749;81;20992;-82
2021/11/18 01:31:14;;;;;;;13.60;10.55;;;;;;;4.74;82.41;97119.59;1757629;81;21016;-82
2021/11/18 01:33:40;;;;;;;14.95;10.05;;;;;;;4.72;82.13;97114.23;1729997;82;21059;-82
2021/11/18 01:36:07;;;;;;;15.43;9.95;;;;;;;4.73;81.98;97111.52;1757660;81;21046;-82
2021/11/18 01:38:33;;;;;;;11.83;8.88;;;;;;;4.75;81.48;97107.06;1727771;83;21374;-82
2021/11/18 01:41:06;;;;;;;12.53;8.73;;;;;;;4.78;81.46;97090.53;1730635;83;20986;-82
2021/11/18 01:43:37;;;;;;;13.85;10.38;;;;;;;4.79;81.25;97085.26;1704380;83;21009;-82
2021/11/18 01:46:06;;;;;;;14.83;10.53;;;;;;;4.79;81.44;97092.98;1730113;83;21052;-82
2021/11/18 01:48:32;;;;;;;15.63;10.00;;;;;;;4.82;81.41;97110.74;1730751;83;21041;-82
2021/11/18 01:50:58;;;;;;;13.98;9.95;;;;;;;4.86;81.46;97107.91;1730971;83;21419;-82
2021/11/18 01:53:36;;;;;;;12.47;8.83;;;;;;;4.90;81.33;97115.74;1730991;83;20949;-82
2021/11/18 01:56:07;;;;;;;13.58;9.15;;;;;;;4.91;81.09;97109.17;1757429;82;21080;-82
2021/11/18 01:58:33;;;;;;;14.23;9.50;;;;;;;4.94;80.69;97115.82;1757669;82;20978;-82
2021/11/18 02:00:59;;;;;;;11.15;8.90;;;;;;;5.00;80.88;97121.27;1757482;82;20993;-82
2021/11/18 02:03:25;;;;;;;12.58;8.65;;;;;;;5.03;80.73;97116.31;1757695;82;21328;-82
2021/11/18 02:05:56;;;;;;;13.10;9.65;;;;;;;5.02;80.45;97123.23;1757591;82;21033;-82
2021/11/18 02:08:23;;;;;;;14.45;9.60;;;;;;;5.03;80.47;97123.57;1757485;82;21395;-82
2021/11/18 02:10:52;;;;;;;18.92;13.50;;;;;;;5.03;80.64;97131.30;1757511;82;20970;-82
2021/11/18 02:13:19;;;;;;;22.07;14.90;;;;;;;5.02;80.78;97139.16;1757579;82;21004;-82
2021/11/18 02:15:57;;;;;;;18.02;12.23;;;;;;;5.02;80.63;97143.02;1757644;81;20978;-82
2021/11/18 02:18:27;;;;;;;19.60;14.35;;;;;;;5.04;80.82;97136.82;1757335;82;21469;-82
2021/11/18 02:20:56;;;;;;;18.77;13.90;;;;;;;5.10;80.85;97132.91;1757667;82;21030;-82
2021/11/18 02:23:26;;;;;;;20.52;15.05;;;;;;;5.12;80.90;97139.55;1756651;82;21088;-82
2021/11/18 02:25:52;;;;;;;20.48;15.03;;;;;;;5.11;80.92;97138.40;1757535;82;21046;-82
2021/11/18 02:28:20;;;;;;;18.90;14.85;;;;;;;5.08;81.01;97143.81;1757587;82;20977;-82
2021/11/18 02:30:47;;;;;;;20.57;15.03;;;;;;;5.03;80.98;97140.31;1765714;78;21028;-82
2021/11/18 02:33:13;;;;;;;17.85;13.90;;;;;;;5.00;81.10;97141.05;1764526;80;21471;-82
2021/11/18 02:35:40;;;;;;;16.77;12.70;;;;;;;5.01;81.20;97140.92;1757610;82;20938;-82
2021/11/18 02:38:06;;;;;;;16.57;12.73;;;;;;;5.03;81.30;97150.62;1757283;82;21040;-82
2021/11/18 02:40:32;;;;;;;15.98;12.07;;;;;;;5.03;81.18;97151.09;1757549;82;21028;-82
2021/11/18 02:42:58;;;;;;;14.40;11.10;;;;;;;5.01;81.26;97146.07;1757561;82;20997;-82
2021/11/18 02:45:29;;;;;;;15.75;11.70;;;;;;;4.98;81.27;97143.76;1757447;82;20977;-82
2021/11/18 02:47:55;;;;;;;19.20;12.60;;;;;;;4.96;81.33;97140.97;1757462;81;21046;-82
2021/11/18 02:50:24;;;;;;;14.40;12.35;;;;;;;4.93;81.35;97141.23;1757643;82;21046;-82
2021/11/18 02:52:50;;;;;;;17.95;14.13;;;;;;;4.93;81.37;97146.38;1757429;82;21013;-82
2021/11/18 02:55:20;;;;;;;17.48;14.20;;;;;;;4.95;81.36;97156.08;1757688;82;20981;-82
2021/11/18 02:57:46;;;;;;;15.25;12.60;;;;;;;4.99;81.38;97160.02;1757416;82;20949;-82
2021/11/18 03:00:16;;;;;;;14.58;11.22;;;;;;;5.03;81.32;97161.39;1757641;81;21009;-82
2021/11/18 03:02:42;;;;;;;16.75;12.70;;;;;;;5.00;81.23;97152.17;1757584;82;21036;-82
2021/11/18 03:05:08;;;;;;;15.15;11.10;;;;;;;4.99;81.30;97162.12;1757496;82;21036;-82
2021/11/18 03:07:33;;;;;;;15.63;12.25;;;;;;;5.02;81.36;97164.44;1757466;82;21337;-82
2021/11/18 03:09:59;;;;;;;19.73;13.95;;;;;;;5.02;81.38;97168.78;1757534;82;20959;-81
2021/11/18 03:12:25;;;;;;;15.85;11.83;;;;;;;5.04;81.21;97182.34;1757489;82;21024;-82
2021/11/18 03:14:51;;;;;;;14.43;10.45;;;;;;;5.06;81.23;97180.48;1757626;82;21379;-82
2021/11/18 03:17:18;;;;;;;14.65;10.58;;;;;;;5.07;81.09;97178.25;1757606;81;20989;-82
2021/11/18 03:19:44;;;;;;;15.85;11.18;;;;;;;5.06;81.20;97183.88;1757190;82;21049;-82
2021/11/18 03:22:11;;;;;;;14.98;11.60;;;;;;;5.04;81.23;97188.34;1757394;82;21304;-82
2021/11/18 03:24:37;;;;;;;14.40;11.33;;;;;;;5.01;81.35;97189.04;1757562;82;21402;-82
2021/11/18 03:27:03;;;;;;;16.17;12.95;;;;;;;4.99;81.55;97186.59;1757805;82;20973;-82
2021/11/18 03:29:29;;;;;;;14.87;11.83;;;;;;;5.05;81.60;97187.87;1757511;81;21101;-82
2021/11/18 03:31:55;;;;;;;14.15;11.90;;;;;;;5.09;81.49;97176.36;1757724;82;21037;-82
2021/11/18 03:34:24;;;;;;;14.03;11.75;;;;;;;5.08;81.41;97178.12;1757573;82;20966;-82
2021/11/18 03:36:50;;;;;;;13.38;11.80;;;;;;;5.12;81.66;97179.95;1757480;82;20989;-82
2021/11/18 03:39:17;;;;;;;14.50;11.88;;;;;;;5.16;81.78;97177.46;1757698;82;21366;-82
2021/11/18 03:41:47;;;;;;;12.35;10.75;;;;;;;5.17;81.79;97180.37;1757364;82;20966;-81
2021/11/18 03:44:13;;;;;;;15.10;12.40;;;;;;;5.16;81.82;97178.75;1757976;80;20973;-82
2021/11/18 03:46:43;;;;;;;14.83;11.12;;;;;;;5.11;81.57;97176.56;1781553;79;21379;-82
2021/11/18 03:49:10;;;;;;;13.98;10.45;;;;;;;5.11;81.68;97183.48;1794230;80;21052;-82
2021/11/18 03:51:35;;;;;;;14.45;11.45;;;;;;;5.08;81.68;97178.12;1795193;80;21008;-82
2021/11/18 03:54:02;;;;;;;12.43;11.12;;;;;;;5.10;81.81;97190.87;1795230;80;20961;-82
2021/11/18 03:56:39;;;;;;;13.28;11.40;;;;;;;5.09;81.84;97187.95;1795101;80;20938;-82
2021/11/18 03:59:02;;;;;;;14.13;11.38;;;;;;;5.09;82.00;97194.39;1794654;80;20971;-82
2021/11/18 04:01:28;;;;;;;16.70;11.65;;;;;;;5.04;81.97;97188.78;1795187;80;21385;-82
2021/11/18 04:03:54;;;;;;;15.20;10.75;;;;;;;5.02;82.10;97190.67;1795171;80;20964;-82
2021/11/18 04:06:22;;;;;;;13.58;10.95;;;;;;;5.05;82.09;97193.83;1795079;80;22158;-82
2021/11/18 04:08:48;;;;;;;13.58;11.33;;;;;;;5.06;82.11;97196.75;1795183;80;20996;-82
2021/11/18 04:11:14;;;;;;;13.25;10.20;;;;;;;5.10;82.24;97196.02;1734875;81;20999;-82
2021/11/18 04:13:39;;;;;;;12.95;9.85;;;;;;;5.11;82.24;97203.61;1762264;81;20975;-82
2021/11/18 04:16:06;;;;;;;13.45;10.72;;;;;;;5.16;82.35;97207.56;1762447;81;20947;-82
2021/11/18 04:18:33;;;;;;;14.80;10.80;;;;;;;5.16;82.36;97208.38;1762247;81;20954;-82
2021/11/18 04:20:59;;;;;;;15.15;12.40;;;;;;;5.15;82.43;97205.45;1761993;81;21079;-82
2021/11/18 04:23:26;;;;;;;15.03;12.63;;;;;;;5.16;82.53;97211.42;1762203;81;20953;-82
2021/11/18 04:25:52;;;;;;;14.93;12.05;;;;;;;5.16;82.41;97203.70;1762340;81;21405;-82
2021/11/18 04:28:20;;;;;;;15.58;13.13;;;;;;;5.12;82.38;97209.11;1761994;81;21014;-82
2021/11/18 04:31:00;;;;;;;16.50;14.18;;;;;;;5.10;82.67;97205.03;1762573;81;21401;-82
2021/11/18 04:33:26;;;;;;;15.58;12.13;;;;;;;5.08;82.82;97206.45;1760855;81;20994;-82
2021/11/18 04:35:52;;;;;;;17.17;13.53;;;;;;;5.03;83.05;97210.33;1762490;81;20983;-82
2021/11/18 04:38:18;;;;;;;15.30;13.03;;;;;;;4.96;83.30;97211.33;1762516;81;21309;-82
2021/11/18 04:40:44;;;;;;;16.42;13.90;;;;;;;4.96;83.43;97210.51;1762413;81;21022;-82
2021/11/18 04:43:09;;;;;;;15.98;14.30;;;;;;;4.96;83.65;97216.47;1762408;81;21002;-82
2021/11/18 04:45:35;;;;;;;16.77;13.88;;;;;;;4.97;83.74;97212.95;1761061;81;20970;-82
2021/11/18 04:48:03;;;;;;;19.15;16.42;;;;;;;4.99;84.01;97208.96;1732935;82;21047;-82
2021/11/18 04:50:29;;;;;;;20.85;15.63;;;;;;;4.97;84.17;97209.09;1769224;80;21408;-82
2021/11/18 04:52:55;;;;;;;17.62;14.03;;;;;;;4.95;84.23;97210.98;1769128;81;20999;-82
2021/11/18 04:55:24;;;;;;;19.10;14.55;;;;;;;4.96;84.37;97210.03;1769185;81;20949;-82
2021/11/18 04:57:50;;;;;;;16.93;13.50;;;;;;;4.93;84.28;97215.44;1769356;80;21405;-82
2021/11/18 05:00:20;;;;;;;17.12;13.65;;;;;;;4.95;84.48;97219.17;1769445;81;20964;-82
2021/11/18 05:02:46;;;;;;;18.42;14.15;;;;;;;4.95;84.60;97229.48;1769508;81;20944;-83
2021/11/18 05:05:12;;;;;;;17.80;14.50;;;;;;;4.98;84.78;97225.36;1769175;80;20936;-83
2021/11/18 05:07:38;;;;;;;17.80;14.18;;;;;;;4.98;84.96;97240.34;1769274;80;21007;-83
2021/11/18 05:10:05;;;;;;;16.32;13.50;;;;;;;4.97;84.89;97241.28;1769338;80;21090;-82
2021/11/18 05:12:31;;;;;;;18.35;14.70;;;;;;;4.97;84.85;97241.76;1769321;81;20963;-82
2021/11/18 05:14:56;;;;;;;15.45;13.60;;;;;;;4.94;84.93;97238.15;1769353;80;21018;-82
2021/11/18 05:17:22;;;;;;;14.95;12.63;;;;;;;4.89;84.83;97232.09;1769318;80;20999;-83
2021/11/18 05:19:48;;;;;;;16.90;13.20;;;;;;;4.91;85.04;97230.68;1769451;80;21467;-83
2021/11/18 05:22:13;;;;;;;15.08;13.03;;;;;;;4.91;85.10;97237.12;1769411;81;20991;-82
2021/11/18 05:24:39;;;;;;;15.05;12.53;;;;;;;4.89;85.33;97237.72;1769501;81;20916;-83
2021/11/18 05:27:05;;;;;;;17.48;13.98;;;;;;;4.82;85.26;97243.35;1769602;81;21043;-83
2021/11/18 05:29:31;;;;;;;16.23;13.08;;;;;;;4.78;85.37;97243.27;1769384;81;21014;-82
2021/11/18 05:31:56;;;;;;;20.35;15.63;;;;;;;4.80;85.50;97243.13;1769438;81;20978;-82
2021/11/18 05:34:22;;;;;;;25.20;17.23;;;;;;;4.80;85.52;97241.37;1769581;81;21055;-82
2021/11/18 05:36:48;;;;;;;37.10;20.70;;;;;;;4.85;85.59;97248.72;1769504;81;21322;-82
2021/11/18 05:39:14;;;;;;;24.70;16.80;;;;;;;4.90;85.57;97265.92;1769357;80;21420;-82
2021/11/18 05:41:40;;;;;;;205.62;118.90;;;;;;;4.95;85.65;97271.50;1769556;81;21019;-82
2021/11/18 05:44:05;;;;;;;95.90;55.17;;;;;;;4.99;85.66;97263.05;1769668;81;21011;-83
2021/11/18 05:46:33;;;;;;;198.35;102.62;;;;;;;4.94;85.59;97266.01;1766531;80;21538;-83
2021/11/18 05:48:59;;;;;;;39.45;26.93;;;;;;;4.93;85.59;97270.00;1760541;81;21007;-83
2021/11/18 05:51:25;;;;;;;80.28;32.28;;;;;;;4.93;85.64;97269.53;1760807;81;21354;-83
2021/11/18 05:53:53;;;;;;;47.60;23.75;;;;;;;4.97;85.62;97275.23;1760385;81;21012;-82
2021/11/18 05:56:21;;;;;;;45.10;24.07;;;;;;;5.01;85.54;97273.56;1760662;81;21294;-83
2021/11/18 05:58:48;;;;;;;258.23;121.82;;;;;;;5.03;85.42;97281.17;1760368;81;21406;-83
2021/11/18 06:01:16;;;;;;;221.97;84.80;;;;;;;5.06;85.53;97275.31;1760566;81;20960;-83
2021/11/18 06:03:42;;;;;;;94.62;33.28;;;;;;;5.03;85.36;97279.41;1760628;81;20983;-83
2021/11/18 06:06:08;;;;;;;60.80;24.85;;;;;;;4.98;85.32;97282.02;1760585;81;20960;-83
2021/11/18 06:08:34;;;;;;;49.05;21.65;;;;;;;4.96;85.28;97281.33;1760502;81;20971;-82
2021/11/18 06:11:01;;;;;;;41.75;21.73;;;;;;;4.94;85.23;97288.37;1760476;81;20963;-82
2021/11/18 06:13:26;;;;;;;33.98;19.95;;;;;;;4.93;85.29;97287.55;1760166;81;21389;-83
2021/11/18 06:15:52;;;;;;;50.83;23.75;;;;;;;4.94;85.25;97281.46;1760460;81;20967;-82
2021/11/18 06:18:18;;;;;;;68.62;31.05;;;;;;;4.94;85.16;97280.64;1760699;81;20924;-83
2021/11/18 06:20:43;;;;;;;69.55;28.17;;;;;;;4.95;85.41;97286.95;1760400;81;21381;-82
2021/11/18 06:23:10;;;;;;;292.45;129.40;;;;;;;5.00;85.39;97296.88;1760402;81;20963;-82
2021/11/18 06:25:36;;;;;;;288.60;136.10;;;;;;;5.03;85.38;97287.61;1760583;81;20955;-83
2021/11/18 06:28:05;;;;;;;130.32;61.05;;;;;;;5.04;85.19;97302.12;1760370;81;21006;-82
2021/11/18 06:30:48;;;;;;;138.92;59.45;;;;;;;5.08;85.11;97306.10;1758394;81;21007;-83
2021/11/18 06:33:13;;;;;;;87.12;32.67;;;;;;;5.11;85.02;97306.66;1759646;81;21023;-83
2021/11/18 06:35:39;;;;;;;83.00;30.90;;;;;;;5.16;84.93;97305.46;1760576;81;20956;-82
2021/11/18 06:38:05;;;;;;;58.17;24.43;;;;;;;5.13;84.88;97306.06;1760452;81;20991;-82
2021/11/18 06:40:31;;;;;;;74.12;27.82;;;;;;;5.12;84.91;97309.58;1760499;81;21020;-82
2021/11/18 06:42:57;;;;;;;49.53;23.35;;;;;;;5.11;85.02;97303.27;1760467;81;20991;-83
2021/11/18 06:45:27;;;;;;;63.95;23.65;;;;;;;5.12;84.84;97312.16;1760559;81;21402;-82
2021/11/18 06:47:54;;;;;;;57.85;24.57;;;;;;;5.18;84.84;97316.45;1760268;81;21023;-82
2021/11/18 06:50:20;;;;;;;60.17;26.93;;;;;;;5.26;84.85;97319.23;1760367;81;21015;-83
2021/11/18 06:52:46;;;;;;;264.42;143.62;;;;;;;5.34;84.83;97314.26;1760448;81;20983;-83
2021/11/18 06:55:12;;;;;;;137.47;48.68;;;;;;;5.38;84.51;97310.51;1760530;81;20974;-83
2021/11/18 06:57:38;;;;;;;59.55;26.12;;;;;;;5.34;84.19;97313.78;1760584;81;21358;-83
2021/11/18 07:00:07;;;;;;;110.08;34.90;;;;;;;5.32;84.10;97313.09;1760476;81;20956;-82
2021/11/18 07:02:33;;;;;;;130.35;38.33;;;;;;;5.31;84.07;97314.05;1760301;81;21468;-82
2021/11/18 07:04:59;;;;;;;32.58;16.25;;;;;;;5.33;83.86;97310.05;1766128;80;21024;-83
2021/11/18 07:07:24;;;;;;;83.85;28.50;;;;;;;5.32;83.41;97314.39;1775510;80;20998;-83
2021/11/18 07:09:50;;;;;;;29.87;15.50;;;;;;;5.32;83.44;97314.86;1797922;80;21465;-83
2021/11/18 07:12:18;;;;;;;31.70;17.05;;;;;;;5.32;83.12;97326.45;1797931;80;21023;-83
2021/11/18 07:14:44;;;;;;;104.80;32.80;;;;;;;5.24;83.14;97311.64;1783455;80;20983;-83
2021/11/18 07:17:10;;;;;;;33.73;17.32;;;;;;;5.25;83.24;97312.45;1790440;80;21046;-82
2021/11/18 07:19:36;;;;;;;111.65;63.58;;;;;;;5.18;82.96;97313.41;1798029;80;21519;-83
2021/11/18 07:22:02;;;;;;;44.00;25.12;;;;;;;5.12;82.84;97317.31;1797915;80;21014;-83
2021/11/18 07:24:28;;;;;;;81.63;29.77;;;;;;;5.13;82.86;97312.50;1798125;80;20987;-83
2021/11/18 07:26:53;;;;;;;64.47;23.18;;;;;;;5.19;83.07;97311.17;1797980;80;21362;-83
2021/11/18 07:29:19;;;;;;;59.58;23.02;;;;;;;5.26;83.25;97316.66;1798203;80;21054;-82
2021/11/18 07:31:45;;;;;;;131.20;37.88;;;;;;;5.35;83.50;97314.12;1798071;80;21006;-83
2021/11/18 07:34:11;;;;;;;78.42;24.75;;;;;;;5.48;83.77;97317.80;1797921;80;21077;-82
2021/11/18 07:36:36;;;;;;;42.33;16.95;;;;;;;5.57;83.51;97322.22;1798028;80;21082;-82
2021/11/18 07:39:04;;;;;;;63.60;21.07;;;;;;;5.65;83.26;97330.11;1797851;80;21031;-83
2021/11/18 07:41:30;;;;;;;51.50;19.55;;;;;;;5.72;83.01;97329.14;1797946;80;20991;-82
2021/11/18 07:43:56;;;;;;;58.55;21.23;;;;;;;5.82;82.95;97328.70;1798084;80;21019;-83
2021/11/18 07:46:21;;;;;;;76.00;30.00;;;;;;;5.88;82.99;97328.20;1798170;80;20956;-82
2021/11/18 07:48:49;;;;;;;136.57;81.08;;;;;;;5.95;82.60;97324.17;1786237;80;20983;-82
2021/11/18 07:51:17;;;;;;;37.42;23.75;;;;;;;6.00;82.40;97319.44;1767079;80;21070;-82
2021/11/18 07:53:44;;;;;;;23.40;13.83;;;;;;;6.00;81.81;97331.05;1767244;80;20980;-83
2021/11/18 07:56:10;;;;;;;22.73;12.53;;;;;;;6.01;81.53;97322.83;1766727;80;21030;-82
2021/11/18 07:58:36;;;;;;;17.90;10.90;;;;;;;6.05;81.45;97328.09;1766917;80;21378;-82
2021/11/18 08:01:02;;;;;;;18.82;11.10;;;;;;;6.10;81.39;97329.80;1767183;80;21077;-82
2021/11/18 08:03:31;;;;;;;17.48;8.93;;;;;;;6.19;81.64;97332.09;1766916;80;20963;-82
2021/11/18 08:05:59;;;;;;;17.05;9.58;;;;;;;6.20;79.98;97333.72;1767057;80;21338;-82
2021/11/18 08:08:25;;;;;;;14.35;8.43;;;;;;;6.20;80.25;97338.88;1766758;80;21011;-82
2021/11/18 08:10:50;;;;;;;11.30;8.08;;;;;;;6.22;80.17;97336.98;1766044;80;21357;-82
2021/11/18 08:13:16;;;;;;;11.25;7.10;;;;;;;6.21;80.16;97340.52;1766949;80;20998;-82
2021/11/18 08:15:42;;;;;;;14.75;8.75;;;;;;;6.24;79.96;97336.38;1767219;80;21054;-83
2021/11/18 08:18:08;;;;;;;37.23;19.40;;;;;;;6.28;79.72;97344.19;1767204;81;21007;-82
2021/11/18 08:20:33;;;;;;;17.77;9.75;;;;;;;6.29;78.99;97345.34;1772637;80;20995;-82
2021/11/18 08:22:59;;;;;;;40.15;16.80;;;;;;;6.30;79.54;97331.97;1750154;81;20989;-83
2021/11/18 08:25:28;;;;;;;20.57;10.15;;;;;;;6.33;79.58;97334.28;1765396;81;20966;-82
2021/11/18 08:27:53;;;;;;;12.45;7.67;;;;;;;6.33;78.96;97331.70;1765209;81;21085;-82
2021/11/18 08:30:23;;;;;;;18.07;9.75;;;;;;;6.34;79.13;97337.20;1765424;81;21046;-82
2021/11/18 08:32:51;;;;;;;10.53;7.33;;;;;;;6.35;79.37;97340.63;1765416;81;20974;-82
2021/11/18 08:35:18;;;;;;;16.90;11.48;;;;;;;6.34;78.40;97339.78;1765505;81;21029;-82
2021/11/18 08:37:43;;;;;;;28.75;14.87;;;;;;;6.36;78.50;97344.36;1765296;81;20986;-82
2021/11/18 08:40:10;;;;;;;19.75;10.90;;;;;;;6.42;78.65;97341.24;1765498;81;20982;-82
2021/11/18 08:42:36;;;;;;;12.68;8.60;;;;;;;6.52;78.85;97350.31;1765303;81;20989;-82
2021/11/18 08:45:03;;;;;;;12.10;9.00;;;;;;;6.54;78.27;97345.83;1765364;81;21002;-82
2021/11/18 08:47:29;;;;;;;16.50;10.43;;;;;;;6.57;78.53;97348.95;1765166;81;21425;-82
2021/11/18 08:49:55;;;;;;;19.10;12.65;;;;;;;6.57;78.51;97354.13;1765262;81;20990;-82
2021/11/18 08:52:24;;;;;;;14.00;9.93;;;;;;;6.63;78.83;97369.08;1765107;81;20959;-82
2021/11/18 08:54:54;;;;;;;17.87;10.08;;;;;;;6.66;78.22;97370.57;1765410;81;20942;-82
2021/11/18 08:57:20;;;;;;;18.73;11.48;;;;;;;6.63;78.01;97370.36;1765604;81;21392;-83
2021/11/18 08:59:47;;;;;;;10.60;9.10;;;;;;;6.61;78.34;97377.43;1765479;81;21040;-83
2021/11/18 09:02:18;;;;;;;14.25;10.68;;;;;;;6.57;78.55;97385.58;1765275;81;21389;-82
2021/11/18 09:04:44;;;;;;;12.17;9.13;;;;;;;6.53;78.96;97385.04;1765442;81;20989;-83
2021/11/18 09:07:09;;;;;;;12.78;9.33;;;;;;;6.54;78.69;97383.27;1764811;81;21383;-82
2021/11/18 09:09:35;;;;;;;16.00;11.15;;;;;;;6.52;78.71;97384.70;1765217;81;20981;-82
2021/11/18 09:12:03;;;;;;;16.35;13.30;;;;;;;6.50;79.10;97387.86;1765439;81;21037;-82
2021/11/18 09:14:30;;;;;;;45.40;22.70;;;;;;;6.50;78.95;97389.15;1765413;81;21333;-82
2021/11/18 09:16:55;;;;;;;16.20;14.00;;;;;;;6.50;78.96;97394.31;1765346;81;21050;-82
2021/11/18 09:19:25;;;;;;;18.60;14.60;;;;;;;6.42;78.85;97392.88;1763284;80;21437;-82
2021/11/18 09:21:52;;;;;;;23.42;17.60;;;;;;;6.39;79.08;97403.47;1746166;81;21030;-82
2021/11/18 09:24:26;;;;;;;22.62;17.67;;;;;;;6.38;79.51;97411.34;1766927;81;20946;-82
2021/11/18 09:27:06;;;;;;;16.67;13.43;;;;;;;6.35;79.70;97413.72;1797697;80;21395;-82
2021/11/18 09:29:32;;;;;;;17.60;12.33;;;;;;;6.30;79.44;97415.85;1773849;80;21035;-82
2021/11/18 09:31:58;;;;;;;19.57;13.43;;;;;;;6.24;79.30;97409.45;1798546;80;20972;-82
2021/11/18 09:34:24;;;;;;;11.93;7.20;;;;;;;6.24;79.30;97412.03;1798346;80;20977;-82
2021/11/18 09:36:49;;;;;;;12.85;8.90;;;;;;;6.21;78.54;97415.36;1774020;80;21047;-82
2021/11/18 09:39:16;;;;;;;17.37;12.65;;;;;;;6.19;78.62;97409.51;1798364;80;20949;-82
2021/11/18 09:41:57;;;;;;;19.75;15.28;;;;;;;6.20;78.98;97413.25;1798278;80;20969;-82
2021/11/18 09:44:43;;;;;;;21.95;14.10;;;;;;;6.25;79.13;97412.85;1798396;80;21037;-82
2021/11/18 09:47:40;;;;;;;21.68;14.10;;;;;;;6.37;79.71;97407.95;1798060;80;21020;-82
2021/11/18 09:50:26;;;;;;;21.37;13.53;;;;;;;6.53;80.18;97402.30;1796371;80;21052;-82
2021/11/18 09:53:17;;;;;;;16.30;10.32;;;;;;;6.68;79.78;97403.56;1798035;80;20981;-82
2021/11/18 09:56:21;;;;;;;11.90;9.78;;;;;;;6.86;79.73;97400.67;1798344;80;21388;-82
2021/11/18 09:59:10;;;;;;;17.15;11.15;;;;;;;6.95;79.06;97407.27;1798405;80;21363;-82
2021/11/18 10:02:24;;;;;;;19.77;12.37;;;;;;;6.92;78.63;97412.23;1798358;80;21033;-82
2021/11/18 10:04:56;;;;;;;16.35;12.28;;;;;;;6.87;78.81;97416.52;1798458;80;20969;-82
2021/11/18 10:07:28;;;;;;;;;;;;;;;6.72;79.30;97423.48;1801096;80;21051;-83
2021/11/18 10:10:34;;;;;;;29.45;20.82;;;;;;;6.65;79.70;97418.00;1797081;80;20302;-83
2021/11/18 10:13:25;;;;;;;16.12;9.75;;;;;;;6.59;79.91;97415.48;1798483;80;20997;-83
2021/11/18 10:16:21;;;;;;;11.25;7.65;;;;;;;6.50;79.88;97425.30;1795263;80;21020;-83
2021/11/18 10:18:51;;;;;;;12.18;7.25;;;;;;;6.39;79.63;97424.13;1797879;80;21345;-83
2021/11/18 10:21:28;;;;;;;12.82;7.80;;;;;;;6.34;79.55;97417.22;1745789;81;21040;-83
2021/11/18 10:24:02;;;;;;;17.07;10.78;;;;;;;6.30;79.82;97409.40;1766930;81;20975;-83
2021/11/18 10:26:35;;;;;;;11.15;9.75;;;;;;;6.26;80.05;97407.56;1766594;81;21034;-83
2021/11/18 10:29:10;;;;;;;15.85;10.55;;;;;;;6.20;80.36;97399.53;1798602;80;20992;-83
2021/11/18 10:31:51;;;;;;;35.30;16.90;;;;;;;6.14;80.36;97400.02;1798878;80;21035;-83
2021/11/18 10:34:26;;;;;;;15.88;9.88;;;;;;;6.12;80.41;97400.16;1799127;80;21013;-83
2021/11/18 10:37:01;;;;;;;12.85;9.03;;;;;;;6.10;80.43;97394.78;1799529;80;21005;-83
2021/11/18 10:40:14;;;;;;;14.25;10.13;;;;;;;6.13;81.08;97390.18;1799537;80;21115;-83
2021/11/18 10:42:45;;;;;;;20.10;13.78;;;;;;;6.23;81.40;97392.34;1799514;80;21072;-83
2021/11/18 10:45:31;;;;;;;15.50;11.73;;;;;;;6.30;81.55;97396.02;1799361;80;21032;-84
2021/11/18 10:48:09;;;;;;;14.68;11.10;;;;;;;6.36;81.52;97390.02;1798710;80;21035;-83
2021/11/18 10:51:02;;;;;;;14.80;11.63;;;;;;;6.43;81.64;97388.05;1781113;80;21431;-83
2021/11/18 10:53:46;;;;;;;20.17;14.73;;;;;;;6.52;81.72;97383.41;1794878;80;21025;-84
2021/11/18 10:56:20;;;;;;;18.25;11.88;;;;;;;6.57;81.05;97377.36;1798909;80;21012;-83
2021/11/18 10:59:03;;;;;;;19.05;12.82;;;;;;;6.65;81.52;97379.75;1799108;80;21056;-83
2021/11/18 11:01:35;;;;;;;14.03;10.13;;;;;;;6.65;80.99;97376.69;1798963;80;21363;-83
2021/11/18 11:04:05;;;;;;;16.17;9.08;;;;;;;6.67;80.66;97372.23;1798318;80;20981;-83
2021/11/18 11:06:46;;;;;;;11.97;8.40;;;;;;;6.72;80.12;97375.70;1798373;80;21057;-83
2021/11/18 11:09:18;;;;;;;11.00;7.07;;;;;;;6.80;80.44;97371.95;1765707;81;21065;-83
2021/11/18 11:11:49;;;;;;;11.88;8.15;;;;;;;6.84;80.02;97366.41;1766401;81;21018;-83
2021/11/18 11:14:46;;;;;;;11.08;6.67;;;;;;;6.82;80.20;97365.70;1766387;81;21034;-83
2021/11/18 11:17:41;;;;;;;11.90;5.78;;;;;;;6.87;80.77;97361.45;1766270;81;21054;-83
2021/11/18 11:20:33;;;;;;;8.70;5.12;;;;;;;6.86;79.88;97360.62;1766051;81;20955;-83
2021/11/18 11:23:19;;;;;;;10.08;5.37;;;;;;;6.83;79.60;97364.78;1766155;81;21038;-83
2021/11/18 11:26:03;;;;;;;7.37;4.45;;;;;;;6.80;78.78;97370.19;1765918;81;21046;-83
2021/11/18 11:29:00;;;;;;;8.08;4.70;;;;;;;6.75;78.88;97362.03;1766034;81;20998;-83
2021/11/18 11:31:48;;;;;;;10.43;6.30;;;;;;;6.75;79.17;97362.51;1765927;81;21454;-82
2021/11/18 11:34:41;;;;;;;10.58;5.67;;;;;;;6.70;78.68;97352.59;1765610;81;20966;-83
2021/11/18 11:37:36;;;;;;;10.50;6.80;;;;;;;6.62;78.84;97353.71;1799024;80;21023;-84